Time;durP1;ratioP1;P1;durP2;ratioP2;P2;SDS_P1;SDS_P2;PMS_P1;PMS_P2;Temp;Humidity;BMP_temperature;BMP_pressure;BME280_temperature;BME280_humidity;BME280_pressure;Samples;Min_cycle;Max_cycle;Signal;HPM_P1;HPM_P2
2022/01/07 00:00:19;;;;;;;17.95;5.82;;;3.80;99.90;;;;;;5036673;28;20075;-71
2022/01/07 00:02:53;;;;;;;17.90;6.28;;;3.80;99.90;;;;;;5036499;28;20044;-71
2022/01/07 00:05:20;;;;;;;15.48;6.03;;;3.80;99.90;;;;;;5036272;28;20052;-71
2022/01/07 00:07:46;;;;;;;15.13;6.28;;;3.80;99.90;;;;;;5036216;28;20436;-71
2022/01/07 00:10:16;;;;;;;15.10;5.50;;;3.80;99.90;;;;;;5036075;28;20420;-71
2022/01/07 00:12:43;;;;;;;19.10;6.15;;;3.80;99.90;;;;;;5036063;28;20044;-71
2022/01/07 00:15:10;;;;;;;19.90;5.82;;;3.80;99.90;;;;;;5036082;28;20124;-71
2022/01/07 00:17:35;;;;;;;17.90;6.07;;;3.80;99.90;;;;;;5019868;28;20053;-71
2022/01/07 00:20:09;;;;;;;16.85;5.65;;;3.80;99.90;;;;;;5035999;28;20488;-71
2022/01/07 00:22:35;;;;;;;13.40;5.40;;;3.80;99.90;;;;;;5036019;28;20120;-71
2022/01/07 00:25:01;;;;;;;19.50;5.85;;;3.80;99.90;;;;;;5035735;28;20036;-71
2022/01/07 00:27:26;;;;;;;15.85;5.63;;;3.70;99.90;;;;;;5019432;28;20037;-71
2022/01/07 00:29:52;;;;;;;15.68;5.95;;;3.80;99.90;;;;;;5035858;28;20115;-71
2022/01/07 00:32:18;;;;;;;15.10;5.90;;;3.80;99.90;;;;;;5036196;28;20063;-71
2022/01/07 00:34:44;;;;;;;14.68;5.13;;;3.80;99.90;;;;;;5035648;28;20048;-71
2022/01/07 00:37:10;;;;;;;15.50;5.78;;;3.80;99.90;;;;;;5035982;28;20091;-71
2022/01/07 00:39:36;;;;;;;14.85;5.80;;;3.70;99.90;;;;;;5019178;28;20465;-71
2022/01/07 00:42:02;;;;;;;14.10;6.28;;;3.70;99.90;;;;;;5019341;28;20076;-71
2022/01/07 00:44:27;;;;;;;14.45;5.20;;;3.70;99.90;;;;;;5035520;28;20067;-70
2022/01/07 00:46:53;;;;;;;14.13;5.65;;;3.70;99.90;;;;;;5019149;28;20036;-71
2022/01/07 00:49:21;;;;;;;16.83;5.25;;;3.60;99.90;;;;;;5035560;28;20041;-71
2022/01/07 00:51:51;;;;;;;17.65;6.05;;;3.60;99.90;;;;;;5035735;28;20527;-70
2022/01/07 00:54:17;;;;;;;14.15;5.93;;;3.50;99.90;;;;;;5035320;28;20049;-71
2022/01/07 00:56:43;;;;;;;15.15;5.55;;;3.50;99.90;;;;;;5019208;28;20037;-71
2022/01/07 00:59:09;;;;;;;17.02;5.93;;;3.40;99.90;;;;;;5019165;28;20497;-71
2022/01/07 01:01:35;;;;;;;13.65;5.32;;;3.40;99.90;;;;;;5035305;28;20416;-71
2022/01/07 01:04:00;;;;;;;12.77;5.30;;;3.30;99.90;;;;;;5035468;28;20045;-71
2022/01/07 01:06:26;;;;;;;13.20;5.35;;;3.30;99.90;;;;;;5035334;28;20041;-71
2022/01/07 01:08:51;;;;;;;18.17;6.88;;;3.20;99.90;;;;;;5035547;28;20163;-70
2022/01/07 01:11:17;;;;;;;16.45;6.15;;;3.20;99.90;;;;;;5035220;28;20047;-71
2022/01/07 01:13:42;;;;;;;18.60;5.85;;;3.20;99.90;;;;;;5035152;28;20051;-71
2022/01/07 01:16:08;;;;;;;13.70;5.75;;;3.10;99.90;;;;;;5018749;28;20128;-71
2022/01/07 01:18:34;;;;;;;15.32;5.10;;;3.10;99.90;;;;;;5035224;28;20033;-70
2022/01/07 01:20:59;;;;;;;16.77;6.20;;;3.00;99.90;;;;;;5038562;28;20072;-71
2022/01/07 01:23:25;;;;;;;16.15;5.85;;;3.00;99.90;;;;;;5041746;28;20033;-71
2022/01/07 01:25:51;;;;;;;18.58;6.43;;;3.00;99.90;;;;;;5041624;28;20041;-70
2022/01/07 01:28:17;;;;;;;16.80;5.60;;;3.00;99.90;;;;;;5041719;28;20411;-71
2022/01/07 01:30:43;;;;;;;18.55;6.00;;;2.90;99.90;;;;;;5041728;28;20044;-71
2022/01/07 01:33:11;;;;;;;23.00;6.60;;;2.90;99.90;;;;;;5041903;28;20508;-71
2022/01/07 01:35:38;;;;;;;18.30;6.50;;;2.90;99.90;;;;;;5041600;28;20045;-71
2022/01/07 01:38:04;;;;;;;16.40;6.38;;;2.90;99.90;;;;;;5041853;28;20052;-71
2022/01/07 01:40:30;;;;;;;19.30;6.93;;;2.90;99.90;;;;;;5041550;28;20033;-71
2022/01/07 01:42:57;;;;;;;20.63;6.20;;;2.80;99.90;;;;;;5041608;28;20043;-71
2022/01/07 01:45:23;;;;;;;24.40;6.93;;;2.80;99.90;;;;;;5024996;28;20124;-71
2022/01/07 01:47:50;;;;;;;22.48;6.88;;;2.80;99.90;;;;;;5041710;28;20067;-71
2022/01/07 01:50:16;;;;;;;19.15;6.95;;;2.80;99.90;;;;;;5025253;28;20455;-70
2022/01/07 01:52:48;;;;;;;18.63;6.78;;;2.80;99.90;;;;;;5041545;28;20045;-70
2022/01/07 01:55:15;;;;;;;20.25;7.20;;;2.70;99.90;;;;;;5041335;28;20036;-71
2022/01/07 01:57:41;;;;;;;21.88;7.78;;;2.70;99.90;;;;;;5024915;28;20044;-71
2022/01/07 02:00:09;;;;;;;21.00;7.95;;;2.70;99.90;;;;;;5041418;28;20033;-71
2022/01/07 02:02:35;;;;;;;13.95;6.85;;;2.60;99.90;;;;;;5041390;28;20040;-70
2022/01/07 02:05:00;;;;;;;21.73;7.47;;;2.70;99.90;;;;;;5041225;28;20036;-71
2022/01/07 02:07:27;;;;;;;20.15;7.32;;;2.60;99.90;;;;;;5024870;28;20047;-71
2022/01/07 02:09:54;;;;;;;18.60;7.43;;;2.60;99.90;;;;;;5041552;28;20037;-70
2022/01/07 02:12:20;;;;;;;15.35;7.30;;;2.60;99.90;;;;;;5041597;28;20047;-71
2022/01/07 02:14:55;;;;;;;17.42;8.05;;;2.60;99.90;;;;;;5041334;28;20087;-71
2022/01/07 02:17:23;;;;;;;18.98;8.02;;;2.60;99.90;;;;;;5024816;28;20033;-71
2022/01/07 02:19:49;;;;;;;19.85;8.32;;;2.60;99.90;;;;;;5041168;28;20072;-71
2022/01/07 02:22:17;;;;;;;17.65;8.75;;;2.60;99.90;;;;;;5041274;28;20040;-71
2022/01/07 02:24:47;;;;;;;19.50;8.55;;;2.60;99.90;;;;;;5040988;28;20055;-71
2022/01/07 02:27:15;;;;;;;17.38;8.73;;;2.60;99.90;;;;;;5041529;28;20103;-71
2022/01/07 02:29:43;;;;;;;20.98;9.05;;;2.60;99.90;;;;;;5041356;28;20041;-71
2022/01/07 02:32:12;;;;;;;21.58;9.82;;;2.60;99.90;;;;;;5038630;28;20037;-71
2022/01/07 02:34:37;;;;;;;21.60;9.13;;;2.60;99.90;;;;;;5021411;28;20138;-71
2022/01/07 02:37:04;;;;;;;20.27;8.50;;;2.60;99.90;;;;;;5038198;28;20192;-71
2022/01/07 02:39:29;;;;;;;18.85;8.75;;;2.60;99.90;;;;;;5037909;28;20044;-70
2022/01/07 02:41:55;;;;;;;15.77;8.70;;;2.60;99.90;;;;;;5038141;28;20045;-70
2022/01/07 02:44:21;;;;;;;17.42;8.63;;;2.60;99.90;;;;;;5037774;28;20532;-71
2022/01/07 02:46:47;;;;;;;17.00;8.40;;;2.50;99.90;;;;;;5037699;28;20068;-70
2022/01/07 02:49:15;;;;;;;19.77;10.00;;;2.60;99.90;;;;;;5037709;28;20082;-71
2022/01/07 02:51:41;;;;;;;20.77;9.63;;;2.60;99.90;;;;;;5021239;28;20041;-71
2022/01/07 02:54:07;;;;;;;20.70;9.25;;;2.60;99.90;;;;;;5037443;28;20045;-70
2022/01/07 02:56:34;;;;;;;20.20;9.77;;;2.60;99.90;;;;;;5037699;28;20033;-71
2022/01/07 02:59:00;;;;;;;14.30;8.95;;;2.60;99.90;;;;;;5021424;28;20508;-71
2022/01/07 03:01:26;;;;;;;16.92;9.25;;;2.60;99.90;;;;;;5037551;28;20036;-70
2022/01/07 03:03:52;;;;;;;16.88;9.38;;;2.60;99.90;;;;;;5037428;28;20037;-70
2022/01/07 03:06:18;;;;;;;15.68;9.35;;;2.60;99.90;;;;;;5037432;28;20083;-71
2022/01/07 03:08:48;;;;;;;19.90;10.27;;;2.60;99.90;;;;;;5037652;28;20128;-71
2022/01/07 03:11:14;;;;;;;16.27;9.60;;;2.60;99.90;;;;;;5037304;28;20492;-70
2022/01/07 03:13:40;;;;;;;18.45;10.07;;;2.60;99.90;;;;;;5020803;28;20044;-70
2022/01/07 03:16:05;;;;;;;19.58;9.73;;;2.60;99.90;;;;;;5037180;28;20127;-70
2022/01/07 03:18:31;;;;;;;16.40;9.30;;;2.60;99.90;;;;;;5020854;28;20039;-71
2022/01/07 03:20:58;;;;;;;15.32;9.30;;;2.60;99.90;;;;;;5037136;28;20447;-71
2022/01/07 03:23:25;;;;;;;14.18;8.88;;;2.70;99.90;;;;;;5037107;28;20049;-70
2022/01/07 03:25:50;;;;;;;19.27;10.02;;;2.70;99.90;;;;;;5036946;28;20485;-70
2022/01/07 03:28:16;;;;;;;15.75;9.23;;;2.70;99.90;;;;;;5037017;28;20045;-71
2022/01/07 03:30:42;;;;;;;15.05;9.65;;;2.70;99.90;;;;;;5020742;28;20076;-71
2022/01/07 03:33:08;;;;;;;17.02;9.48;;;2.70;99.90;;;;;;5036915;28;20524;-71
2022/01/07 03:35:34;;;;;;;15.60;10.10;;;2.70;99.90;;;;;;5036799;28;20041;-70
2022/01/07 03:38:00;;;;;;;17.35;10.15;;;2.80;99.90;;;;;;5037156;28;20041;-71
2022/01/07 03:40:26;;;;;;;14.60;9.57;;;2.70;99.90;;;;;;5036974;28;20170;-70
2022/01/07 03:42:52;;;;;;;19.00;9.93;;;2.80;99.90;;;;;;5020099;28;20489;-71
2022/01/07 03:45:19;;;;;;;18.17;10.18;;;2.80;99.90;;;;;;5036441;28;20033;-70
2022/01/07 03:47:45;;;;;;;17.60;9.38;;;2.80;99.90;;;;;;5020445;28;20048;-70
2022/01/07 03:50:14;;;;;;;18.83;10.20;;;2.80;99.90;;;;;;5036604;28;20033;-70
2022/01/07 03:52:40;;;;;;;15.55;10.40;;;2.80;99.90;;;;;;5020340;28;20087;-71
2022/01/07 03:55:08;;;;;;;16.08;9.52;;;2.80;99.90;;;;;;5036328;28;20466;-70
2022/01/07 03:57:34;;;;;;;19.90;9.55;;;2.90;99.90;;;;;;5019952;28;20044;-71
2022/01/07 04:00:00;;;;;;;15.93;9.48;;;2.90;99.90;;;;;;5020194;28;20037;-71
2022/01/07 04:02:25;;;;;;;17.42;9.70;;;2.90;99.90;;;;;;5036617;28;20033;-70
2022/01/07 04:04:51;;;;;;;13.25;9.20;;;2.90;99.90;;;;;;5036559;28;20485;-70
2022/01/07 04:07:16;;;;;;;16.58;9.45;;;2.90;99.90;;;;;;5036553;28;20493;-71
2022/01/07 04:09:42;;;;;;;14.25;8.30;;;2.90;99.90;;;;;;5036511;28;20581;-70
2022/01/07 04:12:08;;;;;;;15.55;9.55;;;2.90;99.90;;;;;;5019727;28;20037;-71
2022/01/07 04:14:34;;;;;;;18.23;9.45;;;2.90;99.90;;;;;;5035959;28;20037;-70
2022/01/07 04:17:00;;;;;;;17.50;8.50;;;2.90;99.90;;;;;;5036079;28;20037;-70
2022/01/07 04:19:26;;;;;;;17.88;9.38;;;2.90;99.90;;;;;;5036302;28;20033;-71
2022/01/07 04:21:51;;;;;;;15.07;9.35;;;2.90;99.90;;;;;;5035983;28;20497;-70
2022/01/07 04:24:17;;;;;;;19.13;9.23;;;2.90;99.90;;;;;;5036059;28;20037;-70
2022/01/07 04:26:43;;;;;;;16.52;8.73;;;2.80;99.90;;;;;;5019507;28;20381;-71
2022/01/07 04:29:09;;;;;;;13.52;8.48;;;2.90;99.90;;;;;;5035849;28;20190;-71
2022/01/07 04:31:35;;;;;;;14.48;8.65;;;2.90;99.90;;;;;;5035843;28;20041;-70
2022/01/07 04:34:00;;;;;;;17.63;9.07;;;2.90;99.90;;;;;;5035542;28;20052;-70
2022/01/07 04:36:26;;;;;;;14.32;9.00;;;2.90;99.90;;;;;;5036018;28;20052;-70
2022/01/07 04:38:52;;;;;;;12.98;8.20;;;2.90;99.90;;;;;;5035698;28;20048;-71
2022/01/07 04:41:17;;;;;;;13.93;8.55;;;2.90;99.90;;;;;;5019079;28;20033;-71
2022/01/07 04:43:43;;;;;;;16.15;8.02;;;2.90;99.90;;;;;;5035687;28;20035;-71
2022/01/07 04:46:09;;;;;;;11.98;8.50;;;2.90;99.90;;;;;;5035529;28;20409;-70
2022/01/07 04:48:34;;;;;;;10.82;8.02;;;2.90;99.90;;;;;;5035554;28;20041;-70
2022/01/07 04:51:00;;;;;;;13.30;7.63;;;3.00;99.90;;;;;;5035519;28;20041;-70
2022/01/07 04:53:26;;;;;;;11.57;7.75;;;3.00;99.90;;;;;;5019030;28;20040;-70
2022/01/07 04:55:53;;;;;;;15.40;8.25;;;3.00;99.90;;;;;;5018247;28;20083;-71
2022/01/07 04:58:19;;;;;;;13.02;7.20;;;3.00;99.90;;;;;;5035928;28;20041;-71
2022/01/07 05:00:45;;;;;;;14.15;7.93;;;3.00;99.90;;;;;;5035633;28;20489;-71
2022/01/07 05:03:10;;;;;;;14.60;7.45;;;3.00;99.90;;;;;;5035308;28;20435;-70
2022/01/07 05:05:36;;;;;;;13.70;7.72;;;3.00;99.90;;;;;;5035457;28;20090;-70
2022/01/07 05:08:03;;;;;;;11.00;7.90;;;3.00;99.90;;;;;;5035287;28;20407;-71
2022/01/07 05:10:29;;;;;;;9.40;6.68;;;3.00;99.90;;;;;;5035537;28;20401;-71
2022/01/07 05:12:54;;;;;;;12.48;6.93;;;3.00;99.90;;;;;;5018826;28;20493;-70
2022/01/07 05:15:20;;;;;;;14.15;7.75;;;3.00;99.90;;;;;;5035122;28;20088;-70
2022/01/07 05:17:46;;;;;;;10.15;6.93;;;3.00;99.90;;;;;;5035121;28;20037;-71
2022/01/07 05:20:13;;;;;;;11.57;7.50;;;3.00;99.90;;;;;;5035196;28;20041;-71
2022/01/07 05:22:40;;;;;;;9.75;6.70;;;3.00;99.90;;;;;;5035147;28;20082;-70
2022/01/07 05:25:07;;;;;;;9.57;6.38;;;3.00;99.90;;;;;;5035690;28;20097;-67
2022/01/07 05:27:33;;;;;;;13.07;6.85;;;3.00;99.90;;;;;;5035312;28;20037;-67
2022/01/07 05:29:58;;;;;;;12.43;7.43;;;3.00;99.90;;;;;;5035394;28;20049;-67
2022/01/07 05:32:24;;;;;;;12.45;7.93;;;3.00;99.90;;;;;;5035317;28;20048;-67
2022/01/07 05:34:50;;;;;;;13.23;7.65;;;3.00;99.90;;;;;;5035026;28;20049;-67
2022/01/07 05:37:15;;;;;;;13.05;7.20;;;3.00;99.90;;;;;;5035028;28;20041;-67
2022/01/07 05:39:41;;;;;;;10.18;7.15;;;3.00;99.90;;;;;;5035017;28;20033;-67
2022/01/07 05:42:10;;;;;;;12.23;7.07;;;3.00;99.90;;;;;;5034931;28;20107;-67
2022/01/07 05:44:35;;;;;;;10.45;6.93;;;2.90;99.90;;;;;;5034905;28;20512;-67
2022/01/07 05:47:01;;;;;;;12.35;7.15;;;3.00;99.90;;;;;;5035205;28;20050;-67
2022/01/07 05:49:27;;;;;;;10.63;6.78;;;2.90;99.90;;;;;;5035167;28;20051;-67
2022/01/07 05:51:53;;;;;;;9.23;7.00;;;2.90;99.90;;;;;;5034930;28;20124;-68
2022/01/07 05:54:18;;;;;;;11.18;7.00;;;3.00;99.90;;;;;;5034731;28;20037;-67
2022/01/07 05:56:44;;;;;;;10.20;6.85;;;3.00;99.90;;;;;;5034837;28;20045;-67
2022/01/07 05:59:09;;;;;;;7.57;6.70;;;3.00;99.90;;;;;;5018405;28;20040;-67
2022/01/07 06:01:35;;;;;;;12.80;7.47;;;3.00;99.90;;;;;;5034814;28;20067;-67
2022/01/07 06:04:00;;;;;;;12.18;6.93;;;3.00;99.90;;;;;;5034970;28;20071;-67
2022/01/07 06:06:27;;;;;;;10.88;6.55;;;3.00;99.90;;;;;;5035298;28;20428;-67
2022/01/07 06:08:52;;;;;;;11.82;6.50;;;3.00;99.90;;;;;;5038777;28;20134;-67
2022/01/07 06:11:18;;;;;;;10.52;7.10;;;3.00;99.90;;;;;;5038742;28;20496;-67
2022/01/07 06:13:43;;;;;;;12.50;7.40;;;3.00;99.90;;;;;;5038677;28;20066;-67
2022/01/07 06:16:09;;;;;;;10.82;7.38;;;3.00;99.90;;;;;;5038224;28;20501;-67
2022/01/07 06:18:37;;;;;;;9.15;7.00;;;3.00;99.90;;;;;;5038304;28;20037;-68
2022/01/07 06:21:02;;;;;;;11.18;7.35;;;3.10;99.90;;;;;;5038478;28;20036;-67
2022/01/07 06:23:28;;;;;;;10.25;7.15;;;3.10;99.90;;;;;;5038198;28;20456;-67
2022/01/07 06:25:53;;;;;;;10.48;6.78;;;3.10;99.90;;;;;;5038322;28;20049;-67
2022/01/07 06:28:19;;;;;;;13.27;6.45;;;3.10;99.90;;;;;;5021668;28;20095;-67
2022/01/07 06:30:45;;;;;;;9.45;6.63;;;3.10;99.90;;;;;;5038070;28;20036;-67
2022/01/07 06:33:11;;;;;;;11.82;6.95;;;3.10;99.90;;;;;;5038017;28;20041;-67
2022/01/07 06:35:37;;;;;;;8.23;6.30;;;3.10;99.90;;;;;;5037926;28;20051;-68
2022/01/07 06:38:04;;;;;;;9.38;7.65;;;3.20;99.90;;;;;;5021435;28;20033;-67
2022/01/07 06:40:29;;;;;;;9.82;6.60;;;3.20;99.90;;;;;;5038112;28;20048;-68
2022/01/07 06:42:55;;;;;;;12.00;7.20;;;3.20;99.90;;;;;;5037904;28;20040;-67
2022/01/07 06:45:20;;;;;;;11.95;7.72;;;3.20;99.90;;;;;;5021302;28;20044;-67
2022/01/07 06:47:46;;;;;;;8.88;6.93;;;3.20;99.90;;;;;;5037801;28;20052;-67
2022/01/07 06:50:12;;;;;;;10.20;7.30;;;3.20;99.90;;;;;;5037719;28;20123;-67
2022/01/07 06:52:39;;;;;;;9.70;7.38;;;3.20;99.90;;;;;;5021248;28;20089;-67
2022/01/07 06:55:05;;;;;;;9.13;7.50;;;3.20;99.90;;;;;;5021142;28;20041;-67
2022/01/07 06:57:30;;;;;;;9.70;7.22;;;3.20;99.90;;;;;;5021391;28;20524;-67
2022/01/07 06:59:56;;;;;;;9.07;7.13;;;3.20;99.90;;;;;;5037601;28;20036;-67
2022/01/07 07:02:21;;;;;;;11.68;8.15;;;3.20;99.90;;;;;;5037553;28;20079;-68
2022/01/07 07:04:47;;;;;;;8.27;7.00;;;3.20;99.90;;;;;;5037445;28;20117;-68
2022/01/07 07:07:14;;;;;;;10.77;8.50;;;3.20;99.90;;;;;;5037457;28;20086;-67
2022/01/07 07:09:40;;;;;;;10.70;7.70;;;3.20;99.90;;;;;;5037652;28;20099;-67
2022/01/07 07:12:06;;;;;;;12.40;8.13;;;3.20;99.90;;;;;;5037384;28;20451;-67
2022/01/07 07:14:32;;;;;;;12.75;7.72;;;3.20;99.90;;;;;;5037081;28;20045;-67
2022/01/07 07:16:57;;;;;;;9.77;8.43;;;3.30;99.90;;;;;;5037308;28;20073;-67
2022/01/07 07:19:23;;;;;;;9.70;8.23;;;3.30;99.90;;;;;;5036531;28;20120;-69
2022/01/07 07:21:52;;;;;;;14.80;8.60;;;3.30;99.90;;;;;;5037121;28;20036;-68
2022/01/07 07:24:17;;;;;;;12.57;9.02;;;3.30;99.90;;;;;;5037206;28;20041;-68
2022/01/07 07:26:43;;;;;;;10.77;9.15;;;3.30;99.90;;;;;;5037411;28;20055;-68
2022/01/07 07:29:08;;;;;;;14.77;9.77;;;3.30;99.90;;;;;;5037316;28;20523;-68
2022/01/07 07:31:38;;;;;;;11.35;9.40;;;3.30;99.90;;;;;;5037233;28;20413;-68
2022/01/07 07:34:20;;;;;;;12.05;10.23;;;3.30;99.90;;;;;;5036764;28;20099;-68
2022/01/07 07:36:46;;;;;;;14.15;10.02;;;3.40;99.90;;;;;;5020705;28;20453;-68
2022/01/07 07:39:13;;;;;;;13.27;10.85;;;3.40;99.90;;;;;;5036847;28;20032;-68
2022/01/07 07:41:41;;;;;;;14.90;11.30;;;3.40;99.90;;;;;;5020441;28;20378;-68
2022/01/07 07:44:07;;;;;;;19.35;11.75;;;3.40;99.90;;;;;;5036643;28;20036;-68
2022/01/07 07:46:34;;;;;;;16.20;12.07;;;3.40;99.90;;;;;;5020181;28;20037;-67
2022/01/07 07:49:01;;;;;;;18.20;12.25;;;3.40;99.90;;;;;;5036582;28;20048;-68
2022/01/07 07:51:28;;;;;;;17.02;12.68;;;3.50;99.90;;;;;;5036625;28;20052;-68
2022/01/07 07:53:54;;;;;;;19.02;13.48;;;3.50;99.90;;;;;;5036395;28;20452;-69
2022/01/07 07:56:20;;;;;;;26.27;13.25;;;3.50;99.90;;;;;;5036415;28;20045;-68
2022/01/07 07:58:46;;;;;;;19.45;12.80;;;3.50;99.90;;;;;;5036538;28;20035;-68
2022/01/07 08:01:12;;;;;;;23.75;14.18;;;3.60;99.90;;;;;;5036412;28;20033;-68
2022/01/07 08:03:39;;;;;;;18.88;13.35;;;3.60;99.90;;;;;;5036608;28;20382;-68
2022/01/07 08:06:04;;;;;;;19.27;13.82;;;3.70;99.90;;;;;;5036256;28;20489;-68
2022/01/07 08:08:31;;;;;;;20.05;14.43;;;3.70;99.90;;;;;;5020083;28;20071;-68
2022/01/07 08:11:00;;;;;;;23.08;14.85;;;3.70;99.90;;;;;;5036539;28;20041;-68
2022/01/07 08:15:58;;;;;;;23.42;16.00;;;3.70;99.90;;;;;;5036186;28;20585;-68
2022/01/07 08:16:23;;;;;;;20.52;15.23;;;3.70;99.90;;;;;;5036642;28;20041;-68
2022/01/07 08:18:53;;;;;;;19.88;14.98;;;3.80;99.90;;;;;;5036118;28;20037;-68
2022/01/07 08:21:20;;;;;;;22.00;15.95;;;3.80;99.90;;;;;;5036355;28;20122;-68
2022/01/07 08:23:46;;;;;;;21.85;15.82;;;3.80;99.90;;;;;;5035985;28;20040;-68
2022/01/07 08:26:13;;;;;;;25.48;16.73;;;3.90;99.90;;;;;;5035781;28;20045;-67
2022/01/07 08:28:45;;;;;;;22.50;15.95;;;3.90;99.90;;;;;;5036189;28;20091;-68
2022/01/07 08:31:25;;;;;;;22.55;17.00;;;3.90;99.90;;;;;;5035218;28;20452;-67
2022/01/07 08:36:35;;;;;;;22.98;17.58;;;4.00;99.90;;;;;;5035748;28;20084;-68
2022/01/07 08:39:03;;;;;;;27.92;17.42;;;4.10;99.90;;;;;;5019363;28;20072;-67
2022/01/07 08:41:30;;;;;;;27.83;18.35;;;4.10;99.90;;;;;;5019486;28;20049;-67
2022/01/07 08:43:57;;;;;;;25.23;17.02;;;4.10;99.90;;;;;;5035857;28;20041;-68
2022/01/07 08:46:23;;;;;;;29.00;17.83;;;4.10;99.90;;;;;;5035533;28;20048;-69
2022/01/07 08:48:49;;;;;;;21.58;17.25;;;4.20;99.90;;;;;;5035624;28;20045;-68
2022/01/07 08:51:14;;;;;;;24.67;17.13;;;4.20;99.90;;;;;;5035815;28;20175;-68
2022/01/07 08:53:40;;;;;;;26.30;17.13;;;4.30;99.90;;;;;;5035477;28;20416;-68
2022/01/07 08:56:07;;;;;;;26.25;17.95;;;4.30;99.90;;;;;;5035361;28;20120;-68
2022/01/07 08:58:33;;;;;;;29.38;18.33;;;4.40;99.90;;;;;;5035431;28;20045;-68
2022/01/07 09:00:59;;;;;;;28.83;18.48;;;4.40;99.90;;;;;;5035402;28;20040;-68
2022/01/07 09:03:25;;;;;;;33.95;18.40;;;4.40;99.90;;;;;;5018910;28;20036;-68
2022/01/07 09:05:51;;;;;;;27.15;17.48;;;4.50;99.90;;;;;;5035263;28;20051;-68
2022/01/07 09:08:17;;;;;;;24.55;17.38;;;4.50;99.90;;;;;;5035180;28;20509;-69
2022/01/07 09:10:43;;;;;;;28.70;18.27;;;4.50;99.90;;;;;;5035465;28;20080;-68
2022/01/07 09:13:10;;;;;;;23.95;17.60;;;4.50;99.90;;;;;;5035205;28;20045;-68
2022/01/07 09:15:36;;;;;;;29.92;17.83;;;4.50;99.90;;;;;;5035132;28;20041;-67
2022/01/07 09:18:09;;;;;;;31.40;18.38;;;4.60;99.90;;;;;;5035459;28;20028;-67
2022/01/07 09:20:40;;;;;;;30.15;17.85;;;4.60;99.90;;;;;;5035463;28;20047;-68
2022/01/07 09:23:07;;;;;;;27.88;17.75;;;4.60;99.90;;;;;;5018722;28;20055;-67
2022/01/07 09:25:33;;;;;;;31.15;18.88;;;4.60;99.90;;;;;;5034921;28;20052;-68
2022/01/07 09:27:58;;;;;;;26.42;18.40;;;4.60;99.90;;;;;;5035084;28;20048;-68
2022/01/07 09:30:24;;;;;;;25.63;17.50;;;4.60;99.90;;;;;;5018651;28;20048;-68
2022/01/07 09:32:49;;;;;;;29.55;19.92;;;4.70;99.90;;;;;;5018619;28;20126;-68
2022/01/07 09:35:16;;;;;;;29.65;18.55;;;4.70;99.90;;;;;;5034877;28;20041;-68
2022/01/07 09:37:42;;;;;;;30.73;18.65;;;4.70;99.90;;;;;;5034968;28;20049;-68
2022/01/07 09:40:09;;;;;;;29.40;19.25;;;4.80;99.90;;;;;;5034971;28;20037;-68
2022/01/07 09:42:35;;;;;;;24.20;18.83;;;4.80;99.90;;;;;;5021278;28;20095;-68
2022/01/07 09:45:00;;;;;;;33.38;20.10;;;4.70;99.90;;;;;;5038953;28;20412;-68
2022/01/07 09:47:27;;;;;;;32.80;21.20;;;4.70;99.90;;;;;;5039217;28;20127;-68
2022/01/07 09:49:53;;;;;;;29.65;20.27;;;4.70;99.90;;;;;;5039081;28;20086;-68
2022/01/07 09:52:19;;;;;;;26.40;19.60;;;4.70;99.90;;;;;;5038826;28;20167;-68
2022/01/07 09:54:47;;;;;;;28.42;20.55;;;4.70;99.90;;;;;;5038645;28;20037;-68
2022/01/07 09:57:13;;;;;;;25.13;17.88;;;4.70;99.90;;;;;;5038683;28;20037;-68
2022/01/07 09:59:38;;;;;;;15.98;11.57;;;4.80;99.90;;;;;;5038619;28;20155;-68
2022/01/07 10:02:07;;;;;;;18.58;10.15;;;4.80;99.90;;;;;;5038651;28;20119;-68
2022/01/07 10:04:40;;;;;;;8.93;6.15;;;4.90;99.90;;;;;;5038505;28;20040;-68
2022/01/07 10:07:20;;;;;;;;;;;4.90;99.90;;;;;;5039193;28;20059;-68
2022/01/07 10:09:58;;;;;;;10.80;6.90;;;4.80;99.90;;;;;;5022422;28;19939;-68
2022/01/07 10:12:25;;;;;;;10.10;4.15;;;4.70;99.90;;;;;;5038894;28;20123;-68
2022/01/07 10:15:14;;;;;;;4.88;3.03;;;4.70;99.90;;;;;;5038366;28;20048;-69
2022/01/07 10:17:41;;;;;;;3.83;2.00;;;4.60;99.90;;;;;;5038378;28;20041;-69
2022/01/07 10:20:08;;;;;;;3.97;1.55;;;4.60;99.90;;;;;;5038337;28;20045;-69
2022/01/07 10:22:59;;;;;;;3.80;1.83;;;4.80;99.90;;;;;;5038338;28;20493;-69
2022/01/07 10:25:30;;;;;;;3.80;1.70;;;4.80;99.90;;;;;;5038056;28;20048;-70
2022/01/07 10:28:17;;;;;;;3.30;2.53;;;4.80;99.90;;;;;;5038512;28;20052;-69
2022/01/07 10:30:51;;;;;;;4.68;2.72;;;4.70;99.90;;;;;;5038101;28;20115;-69
2022/01/07 10:33:17;;;;;;;6.43;3.00;;;4.60;99.90;;;;;;5038217;28;20041;-69
2022/01/07 10:35:43;;;;;;;7.88;3.40;;;4.60;99.90;;;;;;5037895;28;20041;-69
2022/01/07 10:38:13;;;;;;;5.72;3.72;;;4.60;99.90;;;;;;5038310;28;20366;-69
2022/01/07 10:40:40;;;;;;;6.18;4.30;;;4.50;99.90;;;;;;5021487;28;20044;-69
2022/01/07 10:43:11;;;;;;;8.50;4.63;;;4.50;99.90;;;;;;5038175;28;20076;-69
2022/01/07 10:45:39;;;;;;;10.23;5.75;;;4.40;99.90;;;;;;5021353;28;20497;-69
2022/01/07 10:48:07;;;;;;;14.68;7.57;;;4.40;99.90;;;;;;5021643;28;20049;-69
2022/01/07 10:50:37;;;;;;;15.63;8.25;;;4.40;99.90;;;;;;5037714;28;20496;-69
2022/01/07 10:53:19;;;;;;;13.65;8.30;;;4.60;99.90;;;;;;5020279;28;20047;-69
2022/01/07 10:56:01;;;;;;;15.32;8.00;;;4.70;99.90;;;;;;5037618;28;20041;-69
2022/01/07 10:58:27;;;;;;;12.25;7.32;;;4.80;99.90;;;;;;5021187;28;20075;-69
2022/01/07 11:00:53;;;;;;;12.00;6.53;;;4.80;99.90;;;;;;5037624;28;20079;-69
2022/01/07 11:03:19;;;;;;;12.10;6.53;;;4.80;99.90;;;;;;5037583;28;20037;-70
2022/01/07 11:05:45;;;;;;;12.43;6.00;;;4.80;99.90;;;;;;5037534;28;20041;-70
2022/01/07 11:08:14;;;;;;;12.82;5.88;;;4.80;99.90;;;;;;5021199;28;20044;-69
2022/01/07 11:10:41;;;;;;;10.15;5.85;;;4.90;99.90;;;;;;5020974;28;20123;-69
2022/01/07 11:13:08;;;;;;;11.15;5.60;;;5.00;99.90;;;;;;5037315;28;20408;-69
2022/01/07 11:15:35;;;;;;;11.05;5.30;;;5.10;99.90;;;;;;5037146;28;20090;-69
2022/01/07 11:18:00;;;;;;;10.55;6.07;;;5.30;99.90;;;;;;5037335;28;20049;-69
2022/01/07 11:20:26;;;;;;;12.65;6.43;;;5.40;99.90;;;;;;5037272;28;20040;-69
2022/01/07 11:22:52;;;;;;;16.27;7.93;;;5.40;99.90;;;;;;5037150;28;20037;-69
2022/01/07 11:25:17;;;;;;;15.80;8.43;;;5.40;99.90;;;;;;5020934;28;20037;-72
2022/01/07 11:27:56;;;;;;;13.63;8.85;;;5.50;99.90;;;;;;5037040;28;20036;-72
2022/01/07 11:30:26;;;;;;;18.77;10.05;;;5.40;99.90;;;;;;5020874;28;20151;-73
2022/01/07 11:32:56;;;;;;;13.77;10.75;;;5.40;99.90;;;;;;5037177;28;20171;-72
2022/01/07 11:35:23;;;;;;;18.33;10.63;;;5.40;99.90;;;;;;5037007;28;20080;-72
2022/01/07 11:37:59;;;;;;;17.27;11.20;;;5.30;99.90;;;;;;5037271;28;20037;-72
2022/01/07 11:40:28;;;;;;;19.80;13.50;;;5.30;99.90;;;;;;5036987;28;20048;-73
2022/01/07 11:42:54;;;;;;;18.88;12.02;;;5.30;99.90;;;;;;5036955;28;20412;-73
2022/01/07 11:45:29;;;;;;;18.60;12.35;;;5.20;99.90;;;;;;5036953;28;20045;-72
2022/01/07 11:48:11;;;;;;;18.00;11.38;;;5.20;99.90;;;;;;5037149;28;20036;-73
2022/01/07 11:50:59;;;;;;;18.60;12.23;;;5.10;99.90;;;;;;5036664;28;20041;-72
2022/01/07 11:53:47;;;;;;;19.85;11.02;;;5.10;99.90;;;;;;5036898;28;20048;-72
2022/01/07 11:56:16;;;;;;;14.13;10.73;;;5.20;99.90;;;;;;5026265;28;20491;-72
2022/01/07 11:58:42;;;;;;;19.13;11.00;;;5.20;99.90;;;;;;5036584;28;20508;-72
2022/01/07 12:01:24;;;;;;;14.77;9.32;;;5.20;99.90;;;;;;5036504;28;20047;-72
2022/01/07 12:03:53;;;;;;;14.60;7.78;;;5.20;99.90;;;;;;5036361;28;20045;-71
2022/01/07 12:06:25;;;;;;;11.57;5.43;;;5.20;99.90;;;;;;5036505;28;20120;-72
2022/01/07 12:09:08;;;;;;;11.05;4.97;;;5.20;99.90;;;;;;5019751;28;20516;-72
2022/01/07 12:11:34;;;;;;;8.88;3.80;;;5.40;99.90;;;;;;5021182;28;20049;-72
2022/01/07 12:14:03;;;;;;;9.63;3.05;;;5.90;99.90;;;;;;5036221;28;20037;-72
2022/01/07 12:16:33;;;;;;;8.75;2.20;;;6.50;99.90;;;;;;5036123;28;20071;-72
2022/01/07 12:19:27;;;;;;;9.05;1.63;;;7.00;99.90;;;;;;5036408;28;20079;-72
2022/01/07 12:21:58;;;;;;;6.18;1.60;;;7.10;99.90;;;;;;5019415;28;20033;-72
2022/01/07 12:24:29;;;;;;;6.15;1.38;;;7.00;99.90;;;;;;5036068;28;20482;-73
2022/01/07 12:27:14;;;;;;;6.90;1.30;;;7.30;99.90;;;;;;5036023;28;20501;-73
2022/01/07 12:29:45;;;;;;;7.07;1.27;;;7.60;99.90;;;;;;5035901;28;20081;-73
2022/01/07 12:32:13;;;;;;;8.63;1.58;;;7.70;99.90;;;;;;5035887;28;20126;-72
2022/01/07 12:34:43;;;;;;;7.20;1.52;;;7.40;99.90;;;;;;5035953;28;20064;-73
2022/01/07 12:37:10;;;;;;;5.32;1.45;;;7.10;99.90;;;;;;5035819;28;20084;-73
2022/01/07 12:39:51;;;;;;;6.00;1.20;;;6.60;99.90;;;;;;5035654;28;20122;-72
2022/01/07 12:42:17;;;;;;;6.90;1.92;;;6.20;99.90;;;;;;5035786;28;20036;-73
2022/01/07 12:44:46;;;;;;;5.75;1.17;;;6.30;99.90;;;;;;5036061;28;20064;-72
2022/01/07 12:47:16;;;;;;;8.10;1.35;;;7.40;99.90;;;;;;5035738;28;20623;-72
2022/01/07 12:49:44;;;;;;;6.45;1.10;;;8.80;99.90;;;;;;5035769;28;20041;-72